Time;durP1;ratioP1;P1;durP2;ratioP2;P2;SDS_P1;SDS_P2;PMS_P1;PMS_P2;Temp;Humidity;BMP_temperature;BMP_pressure;BME280_temperature;BME280_humidity;BME280_pressure;Samples;Min_cycle;Max_cycle;Signal;HPM_P1;HPM_P2
2023/05/28 00:00:03;;;;;;;;;;;16.90;77.80;;;;;;4817338;29;19936;-77
2023/05/28 00:02:39;;;;;;;;;;;16.90;77.60;;;;;;4804927;29;19936;-77
2023/05/28 00:05:07;;;;;;;;;;;16.90;77.60;;;;;;4832125;29;19936;-77
2023/05/28 00:07:34;;;;;;;;;;;16.90;76.80;;;;;;4799962;29;20563;-78
2023/05/28 00:10:01;;;;;;;;;;;17.10;77.30;;;;;;4782013;29;19960;-78
2023/05/28 00:12:28;;;;;;;;;;;16.90;77.40;;;;;;4809965;29;20069;-78
2023/05/28 00:14:55;;;;;;;;;;;17.10;77.40;;;;;;4786043;29;19936;-78
2023/05/28 00:17:22;;;;;;;;;;;16.90;76.80;;;;;;4800761;29;20053;-78
2023/05/28 00:19:50;;;;;;;;;;;16.90;76.90;;;;;;4816152;29;19972;-78
2023/05/28 00:22:17;;;;;;;;;;;17.00;78.40;;;;;;4780773;29;19943;-78
2023/05/28 00:24:45;;;;;;;;;;;16.80;77.20;;;;;;4800663;29;20081;-77
2023/05/28 00:27:12;;;;;;;;;;;16.80;77.80;;;;;;4795276;29;20508;-78
2023/05/28 00:29:39;;;;;;;;;;;16.70;77.70;;;;;;4797454;29;19979;-78
2023/05/28 00:32:06;;;;;;;;;;;16.70;78.40;;;;;;4798889;29;20025;-78
2023/05/28 00:34:33;;;;;;;;;;;16.80;78.60;;;;;;4801523;29;19944;-78
2023/05/28 00:37:00;;;;;;;;;;;16.70;78.30;;;;;;4778606;29;19936;-78
2023/05/28 00:39:28;;;;;;;;;;;16.80;78.60;;;;;;4800128;29;20368;-78
2023/05/28 00:42:02;;;;;;;;;;;16.60;78.30;;;;;;4791062;29;19936;-78
2023/05/28 00:44:31;;;;;;;;;;;16.90;78.50;;;;;;4786885;29;19975;-78
2023/05/28 00:46:59;;;;;;;;;;;16.50;78.60;;;;;;4786821;29;19936;-78
2023/05/28 00:49:27;;;;;;;;;;;16.40;78.00;;;;;;4767109;29;19936;-77
2023/05/28 00:51:56;;;;;;;;;;;16.40;78.80;;;;;;4802123;29;19937;-78
2023/05/28 00:54:23;;;;;;;;;;;16.30;78.70;;;;;;4793089;29;20035;-78
2023/05/28 00:56:52;;;;;;;;;;;16.50;79.10;;;;;;4787904;29;20406;-78
2023/05/28 00:59:21;;;;;;;;;;;16.50;79.40;;;;;;4802045;29;20300;-77
2023/05/28 01:01:48;;;;;;;;;;;16.10;78.50;;;;;;4792306;29;20700;-78
2023/05/28 01:04:16;;;;;;;;;;;16.20;78.60;;;;;;4786390;29;19936;-78
2023/05/28 01:06:43;;;;;;;;;;;14.60;77.90;;;;;;4788818;29;20600;-78
2023/05/28 01:09:11;;;;;;;;;;;15.50;78.40;;;;;;4790662;29;20735;-77
2023/05/28 01:11:39;;;;;;;;;;;16.10;78.30;;;;;;4787047;29;19981;-78
2023/05/28 01:14:07;;;;;;;;;;;16.20;78.80;;;;;;4806259;29;20488;-77
2023/05/28 01:16:35;;;;;;;;;;;16.60;79.30;;;;;;4788806;29;20539;-78
2023/05/28 01:19:08;;;;;;;;;;;14.70;77.80;;;;;;4789362;29;20084;-78
2023/05/28 01:21:41;;;;;;;;;;;16.00;78.10;;;;;;4790617;29;20175;-78
2023/05/28 01:24:09;;;;;;;;;;;15.40;78.20;;;;;;4803289;29;21012;-78
2023/05/28 01:26:36;;;;;;;;;;;16.10;78.00;;;;;;4788866;29;20054;-78
2023/05/28 01:29:13;;;;;;;;;;;16.10;77.90;;;;;;4804886;29;19940;-78
2023/05/28 01:31:40;;;;;;;;;;;16.00;77.50;;;;;;4772633;29;19959;-78
2023/05/28 01:34:08;;;;;;;;;;;15.90;77.30;;;;;;4792863;29;19941;-78
2023/05/28 01:36:37;;;;;;;;;;;15.70;77.30;;;;;;4790985;29;19936;-78
2023/05/28 01:39:05;;;;;;;;;;;15.70;77.40;;;;;;4789019;29;20407;-77
2023/05/28 01:41:33;;;;;;;;;;;15.80;76.90;;;;;;4770470;29;20731;-77
2023/05/28 01:44:00;;;;;;;;;;;15.90;77.10;;;;;;4800297;29;20522;-77
2023/05/28 01:46:28;;;;;;;;;;;15.90;76.70;;;;;;4767985;29;19936;-78
2023/05/28 01:48:55;;;;;;;;;;;15.70;76.40;;;;;;4774631;29;20039;-78
2023/05/28 01:51:23;;;;;;;;;;;15.60;76.50;;;;;;4792230;29;19936;-78
2023/05/28 01:53:51;;;;;;;;;;;15.50;76.80;;;;;;4792509;29;19943;-80
2023/05/28 01:56:19;;;;;;;;;;;15.40;77.20;;;;;;4790135;29;19943;-80
2023/05/28 01:58:46;;;;;;;;;;;15.40;76.80;;;;;;4820239;29;20323;-79
2023/05/28 02:01:14;;;;;;;;;;;15.60;77.20;;;;;;4788961;29;20034;-78
2023/05/28 02:03:42;;;;;;;;;;;15.60;77.20;;;;;;4789239;29;20360;-78
2023/05/28 02:06:11;;;;;;;;;;;15.60;76.30;;;;;;4794267;29;20039;-78
2023/05/28 02:08:38;;;;;;;;;;;15.40;76.40;;;;;;4774234;29;19944;-78
2023/05/28 02:11:05;;;;;;;;;;;15.50;76.50;;;;;;4788543;29;19976;-79
2023/05/28 02:13:33;;;;;;;;;;;15.30;76.30;;;;;;4798671;29;19991;-79
2023/05/28 02:16:01;;;;;;;;;;;15.40;76.60;;;;;;4791455;29;19991;-78
2023/05/28 02:18:28;;;;;;;;;;;15.30;76.30;;;;;;4777513;29;20035;-78
2023/05/28 02:20:55;;;;;;;;;;;15.40;76.90;;;;;;4829793;29;19964;-78
2023/05/28 02:23:22;;;;;;;;;;;15.50;76.40;;;;;;4808823;29;19929;-78
2023/05/28 02:25:51;;;;;;;;;;;15.30;76.20;;;;;;4823924;29;19928;-78
2023/05/28 02:28:19;;;;;;;;;;;15.30;76.80;;;;;;4812220;29;19959;-78
2023/05/28 02:30:46;;;;;;;;;;;15.40;77.50;;;;;;4812469;29;19944;-78
2023/05/28 02:33:16;;;;;;;;;;;15.50;77.00;;;;;;4794187;29;20677;-78
2023/05/28 02:35:44;;;;;;;;;;;15.60;77.10;;;;;;4797550;29;19936;-77
2023/05/28 02:38:12;;;;;;;;;;;15.70;76.30;;;;;;4810861;29;19932;-77
2023/05/28 02:40:39;;;;;;;;;;;15.50;76.20;;;;;;4793481;29;20304;-78
2023/05/28 02:43:06;;;;;;;;;;;15.40;76.70;;;;;;4782282;29;19936;-78
2023/05/28 02:45:33;;;;;;;;;;;15.40;76.30;;;;;;4779888;29;20506;-78
2023/05/28 02:48:00;;;;;;;;;;;15.30;76.40;;;;;;4798496;29;19959;-78
2023/05/28 02:50:30;;;;;;;;;;;15.30;77.10;;;;;;4817440;29;20644;-78
2023/05/28 02:53:20;;;;;;;;;;;15.40;77.30;;;;;;4810860;29;20028;-78
2023/05/28 02:55:49;;;;;;;;;;;15.30;77.10;;;;;;4801007;29;19943;-78
2023/05/28 02:58:17;;;;;;;;;;;15.30;77.50;;;;;;4782970;29;19943;-77
2023/05/28 03:00:46;;;;;;;;;;;15.30;77.70;;;;;;4812438;29;20459;-78
2023/05/28 03:03:13;;;;;;;;;;;15.30;77.60;;;;;;4803340;29;20023;-78
2023/05/28 03:05:41;;;;;;;;;;;15.10;77.70;;;;;;4817085;29;20404;-78
2023/05/28 03:08:09;;;;;;;;;;;15.20;78.30;;;;;;4809487;29;19942;-80
2023/05/28 03:10:38;;;;;;;;;;;15.10;78.60;;;;;;4782028;29;19936;-79
2023/05/28 03:13:05;;;;;;;;;;;14.90;78.70;;;;;;4787744;29;19940;-79
2023/05/28 03:15:32;;;;;;;;;;;14.90;79.10;;;;;;4814001;29;19936;-80
2023/05/28 03:17:59;;;;;;;;;;;15.00;79.00;;;;;;4800528;29;20615;-79
2023/05/28 03:20:29;;;;;;;;;;;14.80;78.70;;;;;;4792269;29;19982;-78
2023/05/28 03:22:57;;;;;;;;;;;14.90;79.10;;;;;;4794335;29;19971;-77
2023/05/28 03:25:25;;;;;;;;;;;15.00;78.80;;;;;;4782205;29;22137;-78
2023/05/28 03:27:53;;;;;;;;;;;14.90;78.90;;;;;;4791147;29;20304;-78
2023/05/28 03:30:24;;;;;;;;;;;14.90;79.10;;;;;;4812851;29;20333;-77
2023/05/28 03:32:54;;;;;;;;;;;14.90;80.00;;;;;;4802686;29;19993;-77
2023/05/28 03:35:22;;;;;;;;;;;14.80;79.60;;;;;;4800792;29;19969;-78
2023/05/28 03:37:49;;;;;;;;;;;14.80;80.20;;;;;;4801506;29;20404;-78
2023/05/28 03:40:16;;;;;;;;;;;14.70;80.20;;;;;;4810766;29;19928;-78
2023/05/28 03:42:43;;;;;;;;;;;14.80;80.10;;;;;;4822177;29;20397;-79
2023/05/28 03:45:11;;;;;;;;;;;14.90;80.80;;;;;;4815341;29;20357;-80
2023/05/28 03:47:38;;;;;;;;;;;14.90;80.50;;;;;;4817927;29;21526;-79
2023/05/28 03:50:05;;;;;;;;;;;14.90;80.50;;;;;;4802398;29;20408;-81
2023/05/28 03:52:33;;;;;;;;;;;15.00;80.20;;;;;;4806599;29;20728;-80
2023/05/28 03:55:00;;;;;;;;;;;15.00;80.30;;;;;;4800255;29;20047;-78
2023/05/28 03:57:27;;;;;;;;;;;14.90;80.00;;;;;;4818548;29;19936;-78
2023/05/28 03:59:57;;;;;;;;;;;15.30;80.60;;;;;;4817255;29;20416;-78
2023/05/28 04:02:24;;;;;;;;;;;15.10;80.40;;;;;;4795164;29;20327;-78
2023/05/28 04:04:51;;;;;;;;;;;15.10;80.10;;;;;;4802892;29;19928;-78
2023/05/28 04:07:18;;;;;;;;;;;15.10;80.40;;;;;;4797990;29;20494;-77
2023/05/28 04:09:45;;;;;;;;;;;15.10;80.10;;;;;;4815408;29;19955;-78
2023/05/28 04:12:14;;;;;;;;;;;15.00;80.40;;;;;;4833344;29;20296;-78
2023/05/28 04:14:41;;;;;;;;;;;15.40;81.10;;;;;;4802275;29;20293;-78
2023/05/28 04:17:11;;;;;;;;;;;15.30;79.90;;;;;;4826188;29;19928;-78
2023/05/28 04:19:39;;;;;;;;;;;15.30;80.50;;;;;;4835724;29;19936;-77
2023/05/28 04:22:06;;;;;;;;;;;15.30;80.30;;;;;;4822651;29;19936;-77
2023/05/28 04:24:33;;;;;;;;;;;15.30;80.40;;;;;;4796412;29;19941;-77
2023/05/28 04:27:00;;;;;;;;;;;15.60;80.40;;;;;;4784703;29;19975;-79
2023/05/28 04:29:29;;;;;;;;;;;15.50;79.80;;;;;;4803868;29;19936;-79
2023/05/28 04:31:57;;;;;;;;;;;15.60;80.50;;;;;;4798019;29;20023;-80
2023/05/28 04:34:24;;;;;;;;;;;15.50;79.60;;;;;;4806618;29;19928;-77
2023/05/28 04:36:52;;;;;;;;;;;15.50;79.80;;;;;;4785359;29;19928;-77
2023/05/28 04:39:20;;;;;;;;;;;15.70;80.70;;;;;;4796424;29;19985;-78
2023/05/28 04:41:48;;;;;;;;;;;15.60;79.70;;;;;;4799920;29;22257;-78
2023/05/28 04:44:15;;;;;;;;;;;15.70;80.10;;;;;;4791217;29;20352;-77
2023/05/28 04:46:45;;;;;;;;;;;15.90;80.10;;;;;;4817720;29;20704;-77
2023/05/28 04:49:12;;;;;;;;;;;16.00;80.00;;;;;;4797228;29;19936;-78
2023/05/28 04:51:39;;;;;;;;;;;16.00;80.00;;;;;;4797910;29;19971;-78
2023/05/28 04:54:07;;;;;;;;;;;15.80;79.40;;;;;;4790565;29;19929;-78
2023/05/28 04:56:35;;;;;;;;;;;16.00;79.70;;;;;;4777173;29;19940;-77
2023/05/28 04:59:04;;;;;;;;;;;16.20;80.00;;;;;;4791224;29;20420;-78
2023/05/28 05:01:33;;;;;;;;;;;16.40;79.40;;;;;;4792739;29;19979;-78
2023/05/28 05:04:03;;;;;;;;;;;16.20;78.70;;;;;;4775026;29;19936;-77
2023/05/28 05:06:33;;;;;;;;;;;16.40;79.30;;;;;;4778165;29;19937;-78
2023/05/28 05:09:00;;;;;;;;;;;16.70;79.00;;;;;;4778545;29;19936;-78
2023/05/28 05:11:27;;;;;;;;;;;17.00;78.70;;;;;;4773179;29;20058;-78
2023/05/28 05:13:54;;;;;;;;;;;16.90;78.70;;;;;;4817087;29;19937;-77
2023/05/28 05:16:22;;;;;;;;;;;16.90;77.80;;;;;;4781462;29;19973;-77
2023/05/28 05:18:50;;;;;;;;;;;16.80;77.90;;;;;;4794456;29;19928;-77
2023/05/28 05:21:17;;;;;;;;;;;17.00;78.20;;;;;;4818199;29;19936;-78
2023/05/28 05:23:44;;;;;;;;;;;17.30;77.50;;;;;;4779344;29;19936;-77
2023/05/28 05:26:16;;;;;;;;;;;17.40;76.60;;;;;;4799439;29;19936;-77
2023/05/28 05:28:44;;;;;;;;;;;17.50;76.70;;;;;;4816413;29;19943;-77
2023/05/28 05:31:13;;;;;;;;;;;17.50;76.10;;;;;;4796026;29;19943;-77
2023/05/28 05:33:41;;;;;;;;;;;17.50;76.60;;;;;;4808625;29;20015;-77
2023/05/28 05:36:32;;;;;;;;;;;17.80;76.90;;;;;;4782273;29;19942;-77
2023/05/28 05:39:20;;;;;;;;;;;17.60;76.30;;;;;;4798881;29;20393;-78
2023/05/28 05:42:01;;;;;;;;;;;17.90;77.10;;;;;;4806272;29;20616;-76
2023/05/28 05:44:32;;;;;;;;;;;17.90;76.20;;;;;;4800508;29;20556;-77
2023/05/28 05:46:59;;;;;;;;;;;17.90;76.00;;;;;;4814935;29;19936;-78
2023/05/28 05:49:26;;;;;;;;;;;17.90;75.30;;;;;;4840236;29;19936;-77
2023/05/28 05:51:53;;;;;;;;;;;18.10;76.30;;;;;;4797921;29;20265;-77
2023/05/28 05:54:20;;;;;;;;;;;18.30;75.70;;;;;;4798583;29;19936;-76
2023/05/28 05:56:48;;;;;;;;;;;18.50;75.50;;;;;;4827195;29;22254;-78
2023/05/28 05:59:15;;;;;;;;;;;18.60;75.30;;;;;;4815347;29;19943;-78
2023/05/28 06:01:43;;;;;;;;;;;18.80;75.30;;;;;;4791838;29;20626;-77
2023/05/28 06:04:10;;;;;;;;;;;18.90;74.40;;;;;;4796472;29;20599;-77
2023/05/28 06:07:12;;;;;;;;;;;19.00;73.50;;;;;;4777091;29;19979;-79
2023/05/28 06:09:51;;;;;;;;;;;19.00;73.90;;;;;;4807894;29;19979;-78
2023/05/28 06:12:31;;;;;;;;;;;18.90;73.90;;;;;;4789936;29;19940;-79
2023/05/28 06:15:00;;;;;;;;;;;19.00;74.60;;;;;;4775932;29;19943;-79
2023/05/28 06:17:27;;;;;;;;;;;18.90;74.80;;;;;;4799986;29;20728;-79
2023/05/28 06:19:54;;;;;;;;;;;18.90;74.50;;;;;;4790846;29;20075;-80
2023/05/28 06:22:22;;;;;;;;;;;19.20;74.20;;;;;;4792801;29;19935;-76
2023/05/28 06:24:52;;;;;;;;;;;19.40;74.60;;;;;;4805435;29;19936;-76
2023/05/28 06:27:19;;;;;;;;;;;19.50;74.00;;;;;;4792282;29;20096;-76
2023/05/28 06:29:46;;;;;;;;;;;19.60;73.70;;;;;;4793280;29;20156;-77
2023/05/28 06:32:14;;;;;;;;;;;19.80;73.30;;;;;;4791961;29;20687;-77
2023/05/28 06:34:43;;;;;;;;;;;20.00;73.30;;;;;;4792240;29;20408;-78
2023/05/28 06:37:10;;;;;;;;;;;20.10;72.90;;;;;;4793846;29;22421;-77
2023/05/28 06:39:37;;;;;;;;;;;20.20;73.20;;;;;;4775231;29;20015;-76
2023/05/28 06:42:05;;;;;;;;;;;20.40;73.20;;;;;;4771485;29;19937;-76
2023/05/28 06:44:38;;;;;;;;;;;20.40;72.20;;;;;;4816449;29;19936;-77
2023/05/28 06:47:12;;;;;;;;;;;20.50;72.30;;;;;;4791692;29;19935;-76
2023/05/28 06:49:40;;;;;;;;;;;20.70;72.30;;;;;;4816178;29;19936;-77
2023/05/28 06:52:08;;;;;;;;;;;20.80;72.40;;;;;;4775083;29;20026;-77
2023/05/28 06:54:35;;;;;;;;;;;20.90;72.80;;;;;;4793818;29;19943;-77
2023/05/28 06:57:04;;;;;;;;;;;21.00;71.50;;;;;;4813289;29;20464;-76
2023/05/28 06:59:54;;;;;;;;;;;21.00;69.70;;;;;;4800019;29;19944;-77
2023/05/28 07:02:39;;;;;;;;;;;21.10;70.20;;;;;;4808644;29;19943;-78
2023/05/28 07:05:20;;;;;;;;;;;21.20;69.80;;;;;;4837527;29;19936;-80
2023/05/28 07:07:48;;;;;;;;;;;21.30;67.90;;;;;;4814233;29;19943;-79
2023/05/28 07:10:15;;;;;;;;;;;21.40;67.50;;;;;;4801382;29;19936;-78
2023/05/28 07:12:43;;;;;;;;;;;21.50;67.70;;;;;;4784873;29;20607;-78
2023/05/28 07:15:10;;;;;;;;;;;21.60;66.60;;;;;;4810003;29;19936;-78
2023/05/28 07:17:38;;;;;;;;;;;21.60;67.90;;;;;;4821194;29;19932;-79
2023/05/28 07:20:06;;;;;;;;;;;21.70;65.60;;;;;;4806862;29;19912;-78
2023/05/28 07:23:06;;;;;;;;;;;21.80;67.40;;;;;;4788752;29;20038;-76
2023/05/28 07:25:33;;;;;;;;;;;21.90;65.60;;;;;;4816554;29;19943;-77
2023/05/28 07:28:00;;;;;;;;;;;21.90;65.80;;;;;;4814016;29;19937;-77
2023/05/28 07:30:33;;;;;;;;;;;21.80;65.90;;;;;;4815312;29;22258;-77
2023/05/28 07:33:04;;;;;;;;;;;21.80;65.70;;;;;;4800876;29;20089;-76
2023/05/28 07:35:31;;;;;;;;;;;21.90;64.90;;;;;;4779919;29;20302;-77
2023/05/28 07:37:58;;;;;;;;;;;21.70;65.40;;;;;;4801110;29;22366;-77
2023/05/28 07:40:26;;;;;;;;;;;21.90;66.40;;;;;;4797825;29;19974;-78
2023/05/28 07:43:12;;;;;;;;;;;22.00;65.80;;;;;;4815088;29;19937;-77
2023/05/28 07:45:40;;;;;;;;;;;22.10;65.70;;;;;;4801398;29;19993;-77
2023/05/28 07:48:09;;;;;;;;;;;21.90;64.90;;;;;;4799798;29;19936;-78
2023/05/28 07:50:56;;;;;;;;;;;21.90;65.90;;;;;;4817041;29;19943;-78
2023/05/28 07:53:44;;;;;;;;;;;22.10;65.00;;;;;;4836442;29;20622;-78
2023/05/28 07:56:21;;;;;;;;;;;22.30;66.30;;;;;;4971350;23;19936;-78
2023/05/28 07:58:49;;;;;;;;;;;22.60;66.20;;;;;;4822085;29;19936;-77
2023/05/28 08:01:18;;;;;;;;;;;22.60;65.10;;;;;;4817417;29;20070;-78
2023/05/28 08:03:50;;;;;;;;;;;22.60;65.00;;;;;;4814298;29;20070;-78
2023/05/28 08:06:21;;;;;;;;;;;22.40;64.20;;;;;;4797641;29;20304;-78
2023/05/28 08:08:48;;;;;;;;;;;22.20;65.00;;;;;;4788061;29;19936;-77
2023/05/28 08:11:16;;;;;;;;;;;22.20;64.40;;;;;;4819069;29;19942;-78
2023/05/28 08:13:43;;;;;;;;;;;22.30;64.80;;;;;;4801234;29;19936;-78
2023/05/28 08:16:11;;;;;;;;;;;22.50;65.00;;;;;;4827647;29;20612;-77
2023/05/28 08:18:57;;;;;;;;;;;22.60;65.00;;;;;;4822235;29;19965;-76
2023/05/28 08:21:25;;;;;;;;;;;22.60;65.20;;;;;;4816116;29;20019;-78
2023/05/28 08:23:54;;;;;;;;;;;22.60;65.00;;;;;;4802914;29;20019;-77
2023/05/28 08:26:22;;;;;;;;;;;22.70;64.40;;;;;;4801810;29;19984;-77
2023/05/28 08:28:49;;;;;;;;;;;22.60;64.60;;;;;;4801393;29;20016;-76
2023/05/28 08:31:16;;;;;;;;;;;22.50;64.00;;;;;;4816111;29;20805;-77
2023/05/28 08:33:53;;;;;;;;;;;22.50;64.40;;;;;;4803051;29;19932;-76
2023/05/28 08:36:20;;;;;;;;;;;22.50;64.30;;;;;;4796680;29;20177;-77
2023/05/28 08:38:51;;;;;;;;;;;22.50;65.60;;;;;;4814620;29;19936;-78
2023/05/28 08:41:19;;;;;;;;;;;22.80;64.70;;;;;;4818349;29;19936;-77
2023/05/28 08:43:48;;;;;;;;;;;22.80;64.60;;;;;;4801156;29;20070;-78
2023/05/28 08:46:15;;;;;;;;;;;22.60;64.60;;;;;;4802567;29;19942;-76
2023/05/28 08:49:02;;;;;;;;;;;22.90;65.70;;;;;;4810211;29;19984;-78
2023/05/28 08:51:33;;;;;;;;;;;22.90;64.70;;;;;;4834170;29;19936;-77
2023/05/28 08:54:00;;;;;;;;;;;23.00;64.60;;;;;;4815593;29;19943;-77
2023/05/28 08:56:29;;;;;;;;;;;22.60;64.10;;;;;;4811316;29;19928;-78
2023/05/28 08:58:56;;;;;;;;;;;22.50;64.70;;;;;;4797960;29;19929;-77
2023/05/28 09:01:23;;;;;;;;;;;22.70;65.60;;;;;;4818451;29;19928;-77
2023/05/28 09:04:06;;;;;;;;;;;22.60;65.00;;;;;;4786141;29;20126;-77
2023/05/28 09:06:38;;;;;;;;;;;22.70;64.70;;;;;;4802416;29;20464;-77
2023/05/28 09:09:09;;;;;;;;;;;22.40;64.50;;;;;;4786956;29;20025;-77
2023/05/28 09:11:48;;;;;;;;;;;22.70;66.00;;;;;;4799743;29;20020;-79
2023/05/28 09:14:18;;;;;;;;;;;22.80;64.90;;;;;;4808785;29;20408;-77
2023/05/28 09:16:48;;;;;;;;;;;22.80;65.10;;;;;;4806366;29;19940;-76
2023/05/28 09:19:19;;;;;;;;;;;22.90;63.60;;;;;;4787912;29;20356;-77
2023/05/28 09:21:52;;;;;;;;;;;23.00;64.60;;;;;;4815702;29;19981;-79
2023/05/28 09:24:26;;;;;;;;;;;23.10;65.00;;;;;;4802828;29;20085;-79
2023/05/28 09:27:23;;;;;;;;;;;23.10;64.40;;;;;;4801893;29;19943;-77
2023/05/28 09:29:51;;;;;;;;;;;23.10;64.50;;;;;;4806000;29;19936;-78
2023/05/28 09:32:22;;;;;;;;;;;23.00;64.00;;;;;;4804152;29;19936;-77
2023/05/28 09:34:50;;;;;;;;;;;23.00;64.50;;;;;;4809176;29;20048;-77
2023/05/28 09:37:17;;;;;;;;;;;23.00;64.60;;;;;;4800870;29;19988;-78
2023/05/28 09:39:44;;;;;;;;;;;22.90;64.00;;;;;;4801449;29;22254;-77
2023/05/28 09:42:13;;;;;;;;;;;23.00;64.60;;;;;;4801229;29;20054;-77
2023/05/28 09:44:40;;;;;;;;;;;23.20;65.30;;;;;;4813474;29;19959;-78
2023/05/28 09:47:16;;;;;;;;;;;23.30;65.00;;;;;;4801923;29;20085;-77
2023/05/28 09:49:47;;;;;;;;;;;23.20;65.40;;;;;;4800413;29;19956;-78
2023/05/28 09:52:19;;;;;;;;;;;23.10;65.60;;;;;;4796553;29;19936;-78
2023/05/28 09:54:55;;;;;;;;;;;23.30;66.60;;;;;;4826389;29;20407;-78
2023/05/28 09:57:24;;;;;;;;;;;23.20;64.90;;;;;;4815485;29;19928;-75
2023/05/28 09:59:53;;;;;;;;;;;23.30;65.30;;;;;;4796596;29;19936;-78
2023/05/28 10:02:20;;;;;;;;;;;23.20;65.50;;;;;;4817763;29;20026;-77
2023/05/28 10:04:52;;;;;;;;;;;23.20;65.20;;;;;;4802732;29;20692;-76
2023/05/28 10:07:20;;;;;;;;;;;23.20;66.50;;;;;;4816391;29;19943;-79
2023/05/28 10:09:47;;;;;;;;;;;23.30;65.60;;;;;;4817178;29;20680;-77
2023/05/28 10:12:20;;;;;;;;;;;23.20;64.60;;;;;;4795008;29;19936;-77
2023/05/28 10:14:48;;;;;;;;;;;23.30;65.00;;;;;;4819514;29;19959;-77
2023/05/28 10:17:35;;;;;;;;;;;23.20;65.20;;;;;;4811680;29;19975;-78
2023/05/28 10:20:04;;;;;;;;;;;23.30;65.80;;;;;;4771984;29;19929;-77
2023/05/28 10:22:32;;;;;;;;;;;23.00;65.10;;;;;;4759358;29;19943;-77
2023/05/28 10:25:00;;;;;;;;;;;23.20;66.80;;;;;;4777422;29;19944;-78
2023/05/28 10:27:29;;;;;;;;;;;23.30;65.80;;;;;;4755932;29;19937;-78
2023/05/28 10:29:56;;;;;;;;;;;23.30;66.00;;;;;;4786825;29;20031;-77
2023/05/28 10:32:23;;;;;;;;;;;23.50;66.30;;;;;;4759131;29;19969;-78
2023/05/28 10:35:00;;;;;;;;;;;23.50;65.10;;;;;;4757448;29;20460;-77
2023/05/28 10:37:27;;;;;;;;;;;23.40;64.30;;;;;;4779031;29;19936;-78
2023/05/28 10:39:54;;;;;;;;;;;23.40;65.60;;;;;;4769281;29;19928;-79
2023/05/28 10:42:21;;;;;;;;;;;23.50;65.10;;;;;;4756779;29;20152;-78
2023/05/28 10:44:52;;;;;;;;;;;23.40;62.20;;;;;;4758830;29;19937;-76
2023/05/28 10:47:19;;;;;;;;;;;23.30;62.60;;;;;;4760467;29;21982;-77
2023/05/28 10:50:04;;;;;;;;;;;23.20;63.70;;;;;;4754075;29;19946;-76
2023/05/28 10:52:43;;;;;;;;;;;23.30;63.90;;;;;;4790589;29;19936;-75
2023/05/28 10:55:12;;;;;;;;;;;23.50;61.70;;;;;;4795041;29;19941;-79
2023/05/28 10:57:46;;;;;;;;;;;23.50;61.00;;;;;;4784566;29;20676;-78
2023/05/28 11:00:21;;;;;;;;;;;23.50;61.50;;;;;;4800127;29;20645;-76
2023/05/28 11:02:51;;;;;;;;;;;23.60;62.50;;;;;;4796372;29;22259;-76
2023/05/28 11:05:25;;;;;;;;;;;23.60;63.30;;;;;;4798667;29;20729;-78
2023/05/28 11:07:52;;;;;;;;;;;23.60;62.80;;;;;;4782714;29;19958;-78
2023/05/28 11:10:19;;;;;;;;;;;23.50;62.90;;;;;;4794609;29;19972;-77
2023/05/28 11:12:46;;;;;;;;;;;23.70;62.50;;;;;;4772035;29;19944;-78
2023/05/28 11:15:14;;;;;;;;;;;23.70;61.80;;;;;;4787043;29;19937;-78
2023/05/28 11:17:43;;;;;;;;;;;23.70;61.50;;;;;;4794009;29;19936;-76
2023/05/28 11:20:27;;;;;;;;;;;23.70;61.20;;;;;;4782606;29;19943;-78
2023/05/28 11:22:55;;;;;;;;;;;23.60;61.70;;;;;;4797079;29;19943;-79
2023/05/28 11:25:25;;;;;;;;;;;23.80;61.30;;;;;;4818249;29;20408;-78
2023/05/28 11:27:53;;;;;;;;;;;23.80;60.80;;;;;;4810530;29;19968;-79
2023/05/28 11:30:21;;;;;;;;;;;23.80;62.60;;;;;;4811119;29;20704;-79
2023/05/28 11:32:48;;;;;;;;;;;24.00;60.60;;;;;;4812733;29;19928;-77
2023/05/28 11:35:17;;;;;;;;;;;24.00;60.20;;;;;;4825222;29;19936;-78
2023/05/28 11:37:45;;;;;;;;;;;24.00;60.90;;;;;;4823668;29;19959;-79
2023/05/28 11:40:13;;;;;;;;;;;24.10;60.90;;;;;;4791635;29;19936;-76
2023/05/28 11:42:41;;;;;;;;;;;24.00;60.50;;;;;;4803536;29;19936;-77
2023/05/28 11:45:11;;;;;;;;;;;24.00;59.90;;;;;;4811384;29;19936;-79
2023/05/28 11:47:46;;;;;;;;;;;24.10;60.50;;;;;;4792609;29;19936;-79
2023/05/28 11:50:23;;;;;;;;;;;24.00;59.60;;;;;;4770378;29;19930;-78
2023/05/28 11:52:50;;;;;;;;;;;24.10;59.10;;;;;;4761834;29;20586;-76
2023/05/28 11:55:18;;;;;;;;;;;24.10;59.10;;;;;;4761664;29;20402;-77
2023/05/28 11:57:54;;;;;;;;;;;24.00;59.50;;;;;;4764660;29;20310;-78
2023/05/28 12:00:33;;;;;;;;;;;24.10;59.70;;;;;;4784950;29;20373;-76
2023/05/28 12:03:01;;;;;;;;;;;24.10;60.10;;;;;;4775098;29;19941;-78
2023/05/28 12:05:35;;;;;;;;;;;24.00;59.90;;;;;;4788819;29;20338;-79
2023/05/28 12:08:11;;;;;;;;;;;24.00;59.90;;;;;;4785727;29;19941;-81
2023/05/28 12:10:38;;;;;;;;;;;23.90;59.30;;;;;;4802744;29;19929;-78
2023/05/28 12:13:05;;;;;;;;;;;23.90;59.50;;;;;;4783626;29;20365;-78
2023/05/28 12:15:33;;;;;;;;;;;24.00;59.30;;;;;;4761468;29;20028;-78
2023/05/28 12:18:00;;;;;;;;;;;24.00;59.60;;;;;;4771308;29;19941;-78
2023/05/28 12:20:29;;;;;;;;;;;24.00;58.90;;;;;;4758078;29;20321;-78
2023/05/28 12:23:03;;;;;;;;;;;24.10;60.10;;;;;;4763825;29;20321;-77
2023/05/28 12:25:42;;;;;;;;;;;23.90;58.70;;;;;;4743958;29;19937;-78
2023/05/28 12:28:10;;;;;;;;;;;23.90;58.80;;;;;;4782570;29;20678;-79
2023/05/28 12:30:48;;;;;;;;;;;24.10;59.60;;;;;;4764789;29;19941;-77
2023/05/28 12:33:16;;;;;;;;;;;24.20;58.50;;;;;;4752254;29;19937;-79
2023/05/28 12:35:46;;;;;;;;;;;24.20;58.50;;;;;;4769276;29;19944;-77
2023/05/28 12:38:13;;;;;;;;;;;24.40;59.40;;;;;;4790704;29;20381;-77
2023/05/28 12:40:40;;;;;;;;;;;24.30;58.90;;;;;;4776894;29;19937;-78
2023/05/28 12:43:07;;;;;;;;;;;24.30;58.20;;;;;;4752160;29;19933;-78
2023/05/28 12:45:36;;;;;;;;;;;24.30;58.50;;;;;;4769866;29;19937;-79
2023/05/28 12:48:03;;;;;;;;;;;24.30;59.00;;;;;;4762699;29;20601;-79
2023/05/28 12:50:31;;;;;;;;;;;24.20;57.90;;;;;;4778631;29;19943;-80
2023/05/28 12:52:58;;;;;;;;;;;24.30;58.20;;;;;;4811293;29;19937;-79
2023/05/28 12:55:25;;;;;;;;;;;24.40;58.90;;;;;;4799467;29;20293;-79
2023/05/28 12:57:52;;;;;;;;;;;24.40;57.70;;;;;;4778873;29;19978;-79
2023/05/28 13:00:20;;;;;;;;;;;24.40;57.40;;;;;;4788440;29;22169;-78
2023/05/28 13:02:47;;;;;;;;;;;24.30;55.90;;;;;;4764652;29;19943;-78
2023/05/28 13:05:15;;;;;;;;;;;24.30;57.00;;;;;;4759970;29;19937;-78
2023/05/28 13:07:43;;;;;;;;;;;24.30;56.90;;;;;;4765991;29;20559;-78
2023/05/28 13:10:10;;;;;;;;;;;24.30;56.40;;;;;;4765184;29;19936;-79
2023/05/28 13:12:41;;;;;;;;;;;24.40;56.00;;;;;;4780919;29;19941;-79
2023/05/28 13:15:08;;;;;;;;;;;24.40;57.70;;;;;;4785298;29;20063;-80
2023/05/28 13:17:35;;;;;;;;;;;24.40;56.40;;;;;;4785525;29;19993;-78
2023/05/28 13:20:09;;;;;;;;;;;24.30;54.90;;;;;;4778642;29;20001;-79
2023/05/28 13:22:38;;;;;;;;;;;24.30;55.60;;;;;;4780015;29;20067;-80
2023/05/28 13:25:06;;;;;;;;;;;24.30;56.70;;;;;;4781186;29;19937;-79
2023/05/28 13:27:33;;;;;;;;;;;24.40;56.70;;;;;;4745066;29;19937;-79
2023/05/28 13:30:02;;;;;;;;;;;24.50;55.90;;;;;;4761750;29;19943;-78
2023/05/28 13:32:29;;;;;;;;;;;24.50;56.70;;;;;;4760255;29;19937;-79
2023/05/28 13:34:57;;;;;;;;;;;24.40;55.40;;;;;;4779007;29;19928;-79
2023/05/28 13:37:26;;;;;;;;;;;24.50;55.20;;;;;;4787176;29;21820;-79
2023/05/28 13:39:53;;;;;;;;;;;24.50;53.70;;;;;;4780358;29;20480;-77
2023/05/28 13:42:23;;;;;;;;;;;24.50;54.30;;;;;;4762964;29;20702;-79
2023/05/28 13:44:52;;;;;;;;;;;24.50;54.40;;;;;;4775939;29;19937;-79
2023/05/28 13:47:21;;;;;;;;;;;24.60;55.30;;;;;;4747207;29;20031;-79
2023/05/28 13:49:47;;;;;;;;;;;24.60;54.70;;;;;;4777091;29;20246;-79
2023/05/28 13:52:14;;;;;;;;;;;24.60;54.40;;;;;;4781773;29;20167;-78
2023/05/28 13:54:41;;;;;;;;;;;24.50;54.20;;;;;;4789206;29;20003;-78
2023/05/28 13:57:09;;;;;;;;;;;24.50;54.70;;;;;;4777344;29;19940;-77
2023/05/28 13:59:36;;;;;;;;;;;24.40;55.90;;;;;;4756981;29;19937;-81
2023/05/28 14:02:03;;;;;;;;;;;24.50;54.20;;;;;;4759590;29;20763;-79
2023/05/28 14:04:30;;;;;;;;;;;24.50;54.50;;;;;;4751767;29;19936;-78
2023/05/28 14:06:57;;;;;;;;;;;24.50;54.40;;;;;;4778935;29;20412;-78
2023/05/28 14:09:24;;;;;;;;;;;24.50;54.10;;;;;;4762366;29;19937;-78
2023/05/28 14:11:52;;;;;;;;;;;24.50;53.50;;;;;;4767126;29;19937;-78
2023/05/28 14:14:21;;;;;;;;;;;24.40;53.10;;;;;;4785217;29;19960;-79
2023/05/28 14:16:49;;;;;;;;;;;24.50;52.90;;;;;;4768122;29;20011;-79
2023/05/28 14:19:16;;;;;;;;;;;24.50;52.60;;;;;;4788382;29;19933;-78
2023/05/28 14:21:45;;;;;;;;;;;24.50;52.20;;;;;;4781795;29;19937;-78
2023/05/28 14:24:12;;;;;;;;;;;24.50;52.40;;;;;;4780335;29;19975;-78
2023/05/28 14:26:39;;;;;;;;;;;24.30;51.80;;;;;;4785036;29;19959;-78
2023/05/28 14:29:06;;;;;;;;;;;24.40;52.00;;;;;;4779083;29;20001;-78